createdAt,value
2022-12-09T00:02:04.128Z,27.67
2022-12-09T00:04:33.044Z,25.67
2022-12-09T00:07:01.732Z,29.27
2022-12-09T00:09:29.959Z,28.83
2022-12-09T00:11:59.753Z,27.87
2022-12-09T00:14:28.029Z,25.53
2022-12-09T00:16:56.753Z,25.83
2022-12-09T00:19:25.069Z,25.60
2022-12-09T00:21:53.413Z,24.33
2022-12-09T00:24:21.863Z,24.37
2022-12-09T00:26:50.475Z,25.03
2022-12-09T00:29:20.507Z,29.27
2022-12-09T00:31:48.983Z,27.10
2022-12-09T00:34:17.441Z,25.07
2022-12-09T00:36:45.709Z,26.00
2022-12-09T00:39:13.931Z,23.50
2022-12-09T00:41:42.252Z,22.53
2022-12-09T00:44:11.402Z,23.70
2022-12-09T00:46:41.217Z,28.83
2022-12-09T00:49:09.729Z,26.07
2022-12-09T00:51:38.606Z,28.07
2022-12-09T00:54:07.034Z,26.97
2022-12-09T00:56:35.575Z,28.30
2022-12-09T00:59:04.114Z,27.07
2022-12-09T01:01:32.945Z,25.70
2022-12-09T01:04:03.516Z,29.47
2022-12-09T01:06:32.689Z,25.63
2022-12-09T01:09:01.324Z,36.57
2022-12-09T01:11:31.113Z,25.43
2022-12-09T01:14:01.114Z,25.67
2022-12-09T01:16:31.868Z,29.97
2022-12-09T01:19:03.782Z,32.57
2022-12-09T01:21:33.859Z,27.07
2022-12-09T01:24:02.231Z,29.00
2022-12-09T01:26:30.602Z,26.10
2022-12-09T01:28:58.808Z,28.90
2022-12-09T01:31:27.440Z,32.97
2022-12-09T01:33:57.607Z,24.57
2022-12-09T01:36:30.531Z,27.50
2022-12-09T01:39:00.305Z,28.43
2022-12-09T01:41:29.530Z,26.57
2022-12-09T01:44:16.439Z,28.73
2022-12-09T01:46:45.452Z,32.10
2022-12-09T01:49:18.313Z,25.53
2022-12-09T01:51:55.856Z,25.43
2022-12-09T01:54:24.554Z,26.30
2022-12-09T01:56:55.272Z,22.03
2022-12-09T01:59:24.789Z,26.23
2022-12-09T02:01:58.786Z,23.47
2022-12-09T02:04:29.867Z,27.03
2022-12-09T02:07:03.354Z,26.00
2022-12-09T02:09:32.784Z,25.63
2022-12-09T02:12:13.181Z,23.10
2022-12-09T02:14:44.742Z,28.37
2022-12-09T02:17:28.243Z,22.17
2022-12-09T02:20:09.505Z,24.10
2022-12-09T02:22:44.625Z,26.93
2022-12-09T02:25:27.114Z,23.83
2022-12-09T02:28:20.016Z,23.20
2022-12-09T02:30:59.973Z,22.33
2022-12-09T02:33:41.336Z,23.27
2022-12-09T02:36:18.129Z,27.43
2022-12-09T02:38:49.972Z,23.73
2022-12-09T02:41:22.610Z,24.43
2022-12-09T02:43:56.045Z,22.57
2022-12-09T02:46:30.392Z,23.33
2022-12-09T02:49:01.023Z,23.63
2022-12-09T02:51:36.200Z,25.60
2022-12-09T02:54:09.499Z,24.40
2022-12-09T02:56:41.683Z,26.93
2022-12-09T02:59:10.769Z,26.77
2022-12-09T03:01:45.914Z,26.10
2022-12-09T03:04:19.846Z,23.53
2022-12-09T03:06:53.768Z,27.80
2022-12-09T03:09:25.823Z,28.03
2022-12-09T03:11:56.303Z,23.03
2022-12-09T03:14:30.163Z,29.37
2022-12-09T03:17:04.111Z,24.03
2022-12-09T03:19:38.586Z,21.50
2022-12-09T03:22:12.460Z,23.30
2022-12-09T03:24:46.105Z,26.13
2022-12-09T03:27:20.457Z,24.67
2022-12-09T03:29:50.979Z,24.43
2022-12-09T03:32:22.286Z,24.03
2022-12-09T03:34:52.256Z,25.47
2022-12-09T03:37:23.165Z,22.77
2022-12-09T03:39:53.070Z,21.43
2022-12-09T03:42:24.588Z,22.30
2022-12-09T03:44:56.761Z,23.20
2022-12-09T03:47:25.354Z,27.40
2022-12-09T03:49:54.178Z,36.80
2022-12-09T03:52:28.801Z,25.47
2022-12-09T03:55:01.002Z,26.73
2022-12-09T03:57:30.381Z,23.80
2022-12-09T04:00:02.189Z,23.30
2022-12-09T04:02:40.955Z,22.13
2022-12-09T04:05:10.384Z,20.60
2022-12-09T04:07:40.316Z,26.80
2022-12-09T04:10:09.738Z,21.60
2022-12-09T04:12:40.283Z,24.97
2022-12-09T04:15:10.343Z,21.17
2022-12-09T04:17:38.785Z,22.93
2022-12-09T04:20:08.449Z,25.60
2022-12-09T04:22:37.534Z,24.30
2022-12-09T04:25:08.371Z,23.77
2022-12-09T04:27:36.898Z,26.17
2022-12-09T04:30:07.352Z,25.90
2022-12-09T04:32:36.020Z,21.47
2022-12-09T04:35:05.017Z,25.23
2022-12-09T04:37:33.665Z,26.47
2022-12-09T04:40:01.887Z,22.90
2022-12-09T04:42:31.532Z,23.87
2022-12-09T04:45:00.115Z,23.57
2022-12-09T04:47:28.659Z,20.47
2022-12-09T04:49:57.099Z,25.80
2022-12-09T04:52:25.693Z,25.27
2022-12-09T04:54:54.076Z,24.17
2022-12-09T04:57:22.394Z,25.60
2022-12-09T04:59:52.413Z,22.70
2022-12-09T05:02:20.721Z,30.53
2022-12-09T05:04:49.900Z,32.77
2022-12-09T05:07:18.694Z,39.23
2022-12-09T05:09:47.357Z,34.07
2022-12-09T05:12:15.825Z,33.90
2022-12-09T05:14:44.349Z,33.33
2022-12-09T05:17:14.398Z,30.07
2022-12-09T05:19:43.149Z,43.87
2022-12-09T05:22:11.760Z,38.73
2022-12-09T05:24:41.141Z,38.03
2022-12-09T05:27:09.832Z,40.77
2022-12-09T05:29:38.487Z,45.43
2022-12-09T05:32:07.821Z,42.43
2022-12-09T05:34:38.203Z,41.60
2022-12-09T05:37:07.103Z,42.63
2022-12-09T05:39:35.626Z,48.20
2022-12-09T05:42:04.207Z,48.00
2022-12-09T05:44:32.788Z,54.27
2022-12-09T05:47:01.478Z,52.87
2022-12-09T05:49:30.351Z,63.27
2022-12-09T05:52:00.330Z,44.00
2022-12-09T05:54:28.835Z,45.40
2022-12-09T05:56:58.218Z,49.17
2022-12-09T05:59:26.596Z,41.70
2022-12-09T06:01:55.097Z,50.50
2022-12-09T06:04:23.848Z,49.30
2022-12-09T06:06:52.836Z,50.93
2022-12-09T06:09:22.784Z,63.93
2022-12-09T06:11:51.373Z,51.90
2022-12-09T06:14:19.771Z,63.10
2022-12-09T06:16:48.253Z,55.37
2022-12-09T06:19:17.585Z,47.73
2022-12-09T06:21:46.671Z,80.60
2022-12-09T06:24:15.444Z,54.63
2022-12-09T06:26:45.453Z,61.90
2022-12-09T06:29:14.056Z,66.83
2022-12-09T06:31:42.846Z,63.37
2022-12-09T06:34:11.789Z,64.60
2022-12-09T06:36:40.561Z,66.20
2022-12-09T06:39:11.064Z,63.47
2022-12-09T06:41:41.529Z,68.80
2022-12-09T06:44:14.767Z,57.63
2022-12-09T06:46:48.674Z,75.67
2022-12-09T06:49:17.375Z,51.30
2022-12-09T06:51:46.380Z,67.53
2022-12-09T06:54:14.835Z,62.10
2022-12-09T06:56:43.198Z,63.20
2022-12-09T06:59:13.156Z,59.57
2022-12-09T07:01:41.893Z,72.57
2022-12-09T07:04:13.906Z,63.93
2022-12-09T07:06:43.718Z,68.07
2022-12-09T07:09:17.763Z,67.30
2022-12-09T07:11:47.392Z,65.17
2022-12-09T07:14:20.753Z,69.77
2022-12-09T07:16:49.722Z,58.77
2022-12-09T07:19:20.070Z,50.60
2022-12-09T07:21:50.200Z,65.30
2022-12-09T07:24:22.582Z,71.40
2022-12-09T07:26:51.408Z,53.57
2022-12-09T07:29:22.261Z,61.80
2022-12-09T07:31:51.338Z,65.13
2022-12-09T07:34:20.206Z,59.17
2022-12-09T07:36:48.840Z,62.73
2022-12-09T07:39:19.299Z,56.30
2022-12-09T07:41:49.145Z,74.70
2022-12-09T07:44:17.515Z,62.70
2022-12-09T07:46:47.398Z,56.80
2022-12-09T07:49:16.185Z,58.00
2022-12-09T07:51:45.362Z,72.73
2022-12-09T07:54:14.527Z,65.10
2022-12-09T07:56:42.987Z,52.57
2022-12-09T07:59:13.684Z,49.33
2022-12-09T08:01:42.855Z,63.17
2022-12-09T08:04:13.359Z,71.37
2022-12-09T08:06:42.535Z,55.73
2022-12-09T08:09:13.730Z,54.10
2022-12-09T08:11:42.702Z,65.17
2022-12-09T08:14:13.480Z,59.57
2022-12-09T08:16:43.982Z,58.90
2022-12-09T08:19:14.858Z,53.87
2022-12-09T08:21:46.314Z,56.07
2022-12-09T08:24:17.177Z,58.67
2022-12-09T08:26:45.932Z,66.10
2022-12-09T08:29:15.325Z,66.63
2022-12-09T08:31:45.162Z,63.13
2022-12-09T08:34:16.179Z,61.40
2022-12-09T08:36:45.280Z,56.60
2022-12-09T08:39:14.861Z,60.80
2022-12-09T08:41:44.695Z,61.83
2022-12-09T08:44:15.403Z,67.23
2022-12-09T08:46:45.767Z,64.50
2022-12-09T08:49:18.905Z,58.13
2022-12-09T08:51:48.395Z,61.30
2022-12-09T08:54:17.366Z,74.97
2022-12-09T08:56:47.599Z,63.77
2022-12-09T08:59:17.015Z,54.43
2022-12-09T09:01:45.918Z,57.67
2022-12-09T09:04:18.281Z,63.93
2022-12-09T09:06:50.172Z,54.07
2022-12-09T09:09:20.644Z,61.20
2022-12-09T09:11:50.230Z,63.53
2022-12-09T09:14:18.592Z,63.53
2022-12-09T09:16:47.262Z,57.47
2022-12-09T09:19:20.649Z,64.20
2022-12-09T09:21:49.961Z,63.00
2022-12-09T09:24:20.709Z,72.87
2022-12-09T09:26:50.319Z,73.10
2022-12-09T09:29:21.302Z,64.43
2022-12-09T09:31:54.647Z,75.67
2022-12-09T09:34:26.431Z,63.07
2022-12-09T09:36:55.777Z,68.47
2022-12-09T09:39:24.752Z,66.97
2022-12-09T09:41:54.727Z,63.10
2022-12-09T09:44:27.322Z,67.20
2022-12-09T09:46:57.520Z,74.07
2022-12-09T09:49:36.486Z,64.33
2022-12-09T09:52:09.771Z,67.70
2022-12-09T09:54:39.324Z,64.83
2022-12-09T09:57:15.832Z,60.93
2022-12-09T10:00:08.751Z,66.87
2022-12-09T10:02:58.261Z,58.77
2022-12-09T10:05:31.712Z,60.97
2022-12-09T10:08:14.767Z,67.63
2022-12-09T10:10:51.693Z,62.53
2022-12-09T10:13:35.437Z,63.90
2022-12-09T10:16:14.976Z,64.27
2022-12-09T10:19:05.707Z,70.80
2022-12-09T10:21:43.467Z,70.63
2022-12-09T10:24:29.689Z,69.07
2022-12-09T10:27:06.246Z,63.63
2022-12-09T10:29:49.916Z,53.93
2022-12-09T10:32:22.243Z,74.07
2022-12-09T10:34:50.754Z,71.20
2022-12-09T10:37:26.773Z,64.17
2022-12-09T10:40:01.554Z,69.90
2022-12-09T10:42:47.677Z,67.53
2022-12-09T10:45:16.392Z,60.47
2022-12-09T10:47:52.169Z,67.70
2022-12-09T10:50:32.677Z,62.07
2022-12-09T10:53:08.354Z,60.03
2022-12-09T10:55:39.685Z,52.07
2022-12-09T10:58:17.666Z,58.83
2022-12-09T11:01:00.615Z,65.87
2022-12-09T11:03:33.462Z,50.83
2022-12-09T11:06:12.665Z,57.13
2022-12-09T11:08:51.547Z,57.87
2022-12-09T11:11:21.697Z,60.57
2022-12-09T11:13:50.646Z,62.10
2022-12-09T11:16:28.867Z,55.10
2022-12-09T11:18:57.720Z,62.53
2022-12-09T11:21:35.084Z,63.57
2022-12-09T11:24:06.179Z,58.13
2022-12-09T11:26:39.331Z,62.73
2022-12-09T11:29:19.539Z,54.17
2022-12-09T11:31:49.171Z,62.80
2022-12-09T11:34:23.365Z,61.57
2022-12-09T11:36:54.672Z,61.87
2022-12-09T11:39:32.488Z,62.07
2022-12-09T11:42:17.472Z,51.57
2022-12-09T11:44:54.049Z,54.47
2022-12-09T11:47:29.122Z,47.13
2022-12-09T11:50:04.599Z,51.77
2022-12-09T11:52:33.310Z,63.37
2022-12-09T11:55:18.482Z,53.63
2022-12-09T11:57:56.615Z,61.33
2022-12-09T12:00:27.352Z,55.00
2022-12-09T12:03:04.964Z,54.17
2022-12-09T12:05:38.338Z,59.33
2022-12-09T12:08:15.831Z,59.47
2022-12-09T12:10:50.997Z,57.87
2022-12-09T12:13:24.676Z,67.97
2022-12-09T12:15:59.846Z,67.50
2022-12-09T12:18:37.700Z,73.77
2022-12-09T12:21:22.380Z,56.07
2022-12-09T12:24:24.295Z,67.60
2022-12-09T12:27:05.478Z,58.90
2022-12-09T12:29:45.876Z,70.80
2022-12-09T12:32:32.407Z,71.20
2022-12-09T12:35:15.435Z,70.73
2022-12-09T12:37:51.898Z,61.67
2022-12-09T12:40:31.197Z,60.67
2022-12-09T12:43:27.532Z,61.63
2022-12-09T12:46:19.248Z,63.30
2022-12-09T12:49:02.734Z,66.30
2022-12-09T12:51:37.770Z,63.60
2022-12-09T12:54:19.250Z,71.13
2022-12-09T12:56:55.242Z,63.93
2022-12-09T12:59:35.980Z,63.70
2022-12-09T13:02:21.954Z,64.10
2022-12-09T13:04:55.382Z,60.97
2022-12-09T13:07:31.648Z,59.77
2022-12-09T13:10:04.455Z,63.03
2022-12-09T13:12:56.825Z,61.00
2022-12-09T13:15:32.754Z,56.73
2022-12-09T13:18:07.829Z,57.20
2022-12-09T13:20:44.916Z,57.03
2022-12-09T13:23:31.964Z,66.40
2022-12-09T13:26:17.064Z,65.07
2022-12-09T13:28:52.525Z,67.13
2022-12-09T13:31:29.310Z,66.53
2022-12-09T13:34:07.245Z,59.47
2022-12-09T13:36:40.903Z,69.87
2022-12-09T13:39:11.883Z,62.80
2022-12-09T13:42:03.371Z,58.83
2022-12-09T13:44:35.631Z,63.37
2022-12-09T13:47:28.743Z,63.77
2022-12-09T13:50:02.284Z,55.87
2022-12-09T13:52:48.440Z,57.30
2022-12-09T13:55:34.566Z,59.43
2022-12-09T13:58:39.370Z,62.80
2022-12-09T14:01:17.154Z,58.77
2022-12-09T14:03:59.553Z,64.80
2022-12-09T14:06:31.592Z,62.27
2022-12-09T14:09:03.358Z,64.30
2022-12-09T14:11:50.039Z,59.70
2022-12-09T14:14:58.237Z,61.90
2022-12-09T14:18:02.427Z,50.30
2022-12-09T14:20:38.745Z,66.33
2022-12-09T14:23:24.900Z,59.30
2022-12-09T14:26:06.009Z,65.63
2022-12-09T14:28:53.468Z,66.87
2022-12-09T14:31:44.072Z,66.10
2022-12-09T14:34:37.273Z,71.17
2022-12-09T14:37:29.003Z,60.10
2022-12-09T14:40:17.671Z,65.80
2022-12-09T14:42:52.638Z,67.23
2022-12-09T14:45:31.051Z,60.37
2022-12-09T14:47:59.606Z,67.40
2022-12-09T14:50:29.999Z,63.30
2022-12-09T14:53:02.905Z,64.77
2022-12-09T14:55:33.693Z,63.77
2022-12-09T14:58:03.722Z,63.77
2022-12-09T15:00:37.700Z,64.57
2022-12-09T15:03:39.514Z,58.83
2022-12-09T15:06:13.450Z,56.77
2022-12-09T15:08:43.724Z,55.53
2022-12-09T15:11:16.340Z,55.57
2022-12-09T15:13:48.174Z,52.43
2022-12-09T15:16:19.311Z,58.23
2022-12-09T15:18:48.632Z,50.57
2022-12-09T15:21:27.525Z,52.30
2022-12-09T15:23:58.672Z,57.70
2022-12-09T15:26:29.355Z,53.37
2022-12-09T15:28:59.489Z,62.83
2022-12-09T15:31:29.446Z,56.50
2022-12-09T15:33:59.617Z,51.63
2022-12-09T15:36:31.840Z,55.00
2022-12-09T15:39:03.891Z,56.23
2022-12-09T15:41:53.717Z,53.67
2022-12-09T15:44:24.827Z,51.10
2022-12-09T15:46:56.720Z,57.57
2022-12-09T15:49:34.272Z,62.10
2022-12-09T15:52:05.537Z,53.33
2022-12-09T15:54:38.593Z,53.33
2022-12-09T15:57:11.784Z,54.30
2022-12-09T15:59:43.157Z,56.70
2022-12-09T16:02:15.386Z,59.37
2022-12-09T16:04:47.090Z,57.40
2022-12-09T16:07:18.117Z,56.70
2022-12-09T16:12:42.079Z,55.43
2022-12-09T16:15:13.022Z,59.63
2022-12-09T16:17:53.374Z,51.87
2022-12-09T16:20:24.631Z,58.80
2022-12-09T16:22:52.942Z,45.67
2022-12-09T16:25:24.430Z,59.13
2022-12-09T16:28:00.121Z,53.77
2022-12-09T16:30:30.996Z,54.57
2022-12-09T16:33:00.943Z,65.57
2022-12-09T16:35:34.883Z,56.43
2022-12-09T16:38:17.569Z,55.70
2022-12-09T16:41:01.058Z,56.87
2022-12-09T16:43:31.686Z,56.83
2022-12-09T16:46:01.507Z,60.60
2022-12-09T16:48:31.284Z,65.60
2022-12-09T16:51:07.362Z,57.20
2022-12-09T16:53:40.226Z,58.33
2022-12-09T16:56:19.982Z,55.47
2022-12-09T16:58:49.659Z,58.07
2022-12-09T17:01:19.519Z,66.87
2022-12-09T17:03:52.547Z,65.87
2022-12-09T17:06:21.909Z,70.27
2022-12-09T17:08:50.271Z,58.30
2022-12-09T17:11:21.516Z,65.37
2022-12-09T17:13:51.840Z,60.20
2022-12-09T17:16:22.287Z,62.73
2022-12-09T17:18:51.142Z,61.77
2022-12-09T17:21:19.922Z,61.33
2022-12-09T17:23:48.244Z,78.37
2022-12-09T17:26:19.086Z,73.17
2022-12-09T17:28:48.550Z,76.23
2022-12-09T17:31:20.694Z,62.20
2022-12-09T17:33:49.715Z,64.00
2022-12-09T17:36:18.971Z,73.00
2022-12-09T17:38:47.450Z,72.57
2022-12-09T17:41:19.933Z,78.97
2022-12-09T17:43:48.153Z,83.70
2022-12-09T17:46:18.138Z,79.13
2022-12-09T17:48:46.708Z,76.47
2022-12-09T17:51:17.878Z,84.77
2022-12-09T17:53:47.023Z,76.90
2022-12-09T17:56:17.883Z,73.23
2022-12-09T17:58:46.484Z,76.87
2022-12-09T18:01:16.939Z,81.97
2022-12-09T18:03:56.044Z,82.33
2022-12-09T18:06:25.559Z,82.33
2022-12-09T18:08:54.008Z,79.73
2022-12-09T18:11:22.690Z,69.00
2022-12-09T18:13:51.680Z,66.33
2022-12-09T18:16:20.590Z,75.87
2022-12-09T18:18:50.366Z,74.83
2022-12-09T18:21:19.675Z,80.47
2022-12-09T18:23:48.285Z,83.13
2022-12-09T18:26:18.405Z,75.23
2022-12-09T18:28:46.699Z,86.23
2022-12-09T18:31:17.227Z,82.23
2022-12-09T18:33:45.646Z,83.80
2022-12-09T18:36:16.814Z,88.97
2022-12-09T18:38:45.553Z,75.87
2022-12-09T18:41:14.606Z,81.13
2022-12-09T18:43:45.908Z,76.70
2022-12-09T18:46:15.955Z,73.40
2022-12-09T18:48:45.130Z,74.60
2022-12-09T18:51:18.728Z,79.90
2022-12-09T18:53:47.968Z,74.73
2022-12-09T18:56:17.335Z,70.07
2022-12-09T19:01:35.777Z,79.73
2022-12-09T19:04:06.485Z,80.50
2022-12-09T19:06:37.410Z,70.97
2022-12-09T19:09:09.261Z,71.97
2022-12-09T19:11:40.116Z,68.03
2022-12-09T19:14:09.514Z,72.13
2022-12-09T19:16:38.343Z,74.50
2022-12-09T19:19:10.425Z,73.00
2022-12-09T19:21:41.326Z,72.00
2022-12-09T19:24:14.032Z,76.10
2022-12-09T19:26:43.951Z,82.37
2022-12-09T19:29:13.606Z,71.17
2022-12-09T19:31:43.461Z,86.00
2022-12-09T19:34:14.660Z,73.00
2022-12-09T19:36:45.220Z,81.40
2022-12-09T19:39:14.413Z,77.13
2022-12-09T19:41:45.956Z,70.70
2022-12-09T19:44:31.183Z,72.60
2022-12-09T19:47:04.218Z,75.60
2022-12-09T19:49:33.283Z,77.33
2022-12-09T19:52:03.536Z,72.60
2022-12-09T19:54:32.394Z,75.63
2022-12-09T19:57:00.658Z,74.57
2022-12-09T19:59:29.409Z,74.67
2022-12-09T20:01:57.751Z,77.67
2022-12-09T20:07:18.314Z,78.23
2022-12-09T20:09:46.744Z,80.17
2022-12-09T20:12:14.998Z,66.03
2022-12-09T20:14:43.341Z,69.73
2022-12-09T20:17:11.992Z,85.93
2022-12-09T20:19:40.269Z,79.87
2022-12-09T20:22:08.509Z,83.30
2022-12-09T20:24:38.064Z,71.87
2022-12-09T20:27:07.230Z,76.37
2022-12-09T20:29:38.018Z,77.33
2022-12-09T20:32:08.384Z,82.03
2022-12-09T20:34:36.830Z,75.67
2022-12-09T20:37:07.319Z,69.43
2022-12-09T20:39:37.116Z,84.77
2022-12-09T20:42:06.543Z,67.03
2022-12-09T20:44:34.946Z,74.37
2022-12-09T20:47:03.245Z,79.00
2022-12-09T20:49:31.755Z,74.20
2022-12-09T20:52:00.235Z,69.37
2022-12-09T20:54:28.465Z,77.30
2022-12-09T20:56:58.267Z,71.03
2022-12-09T20:59:26.611Z,87.90
2022-12-09T21:01:55.957Z,69.70
2022-12-09T21:04:24.533Z,76.50
2022-12-09T21:06:52.960Z,73.37
2022-12-09T21:09:24.774Z,75.43
2022-12-09T21:11:53.015Z,80.10
2022-12-09T21:14:23.444Z,78.53
2022-12-09T21:16:53.177Z,70.83
2022-12-09T21:19:25.103Z,86.47
2022-12-09T21:21:54.510Z,77.47
2022-12-09T21:24:24.671Z,68.10
2022-12-09T21:26:55.487Z,77.97
2022-12-09T21:29:31.355Z,73.33
2022-12-09T21:32:01.286Z,85.50
2022-12-09T21:34:29.721Z,80.37
2022-12-09T21:36:58.022Z,67.77
2022-12-09T21:39:27.596Z,81.87
2022-12-09T21:41:55.876Z,75.13
2022-12-09T21:44:27.165Z,72.50
2022-12-09T21:46:55.514Z,73.03
2022-12-09T21:49:24.070Z,76.50
2022-12-09T21:51:52.439Z,73.73
2022-12-09T21:54:20.672Z,78.97
2022-12-09T21:56:48.917Z,80.27
2022-12-09T21:59:17.314Z,83.03
2022-12-09T22:01:47.032Z,102.93
2022-12-09T22:04:17.347Z,86.03
2022-12-09T22:06:46.761Z,85.17
2022-12-09T22:09:16.030Z,87.57
2022-12-09T22:11:44.544Z,82.27
2022-12-09T22:14:13.278Z,101.67
2022-12-09T22:16:43.776Z,86.43
2022-12-09T22:19:18.557Z,82.03
2022-12-09T22:21:47.354Z,83.13
2022-12-09T22:24:16.578Z,94.40
2022-12-09T22:26:45.266Z,91.37
2022-12-09T22:29:15.278Z,100.03
2022-12-09T22:31:47.515Z,107.47
2022-12-09T22:34:18.568Z,95.40
2022-12-09T22:36:47.704Z,104.60
2022-12-09T22:39:17.406Z,98.93
2022-12-09T22:41:46.206Z,98.70
2022-12-09T22:44:16.562Z,99.00
2022-12-09T22:46:45.549Z,105.10
2022-12-09T22:49:15.204Z,96.63
2022-12-09T22:51:46.012Z,98.13
2022-12-09T22:54:14.938Z,93.73
2022-12-09T22:56:44.003Z,83.20
2022-12-09T22:59:13.780Z,103.57
2022-12-09T23:01:42.280Z,85.87
2022-12-09T23:04:11.306Z,79.70
2022-12-09T23:06:40.898Z,87.53
2022-12-09T23:09:19.491Z,84.33
2022-12-09T23:11:48.237Z,74.43
2022-12-09T23:14:17.104Z,82.00
2022-12-09T23:16:46.955Z,72.77
2022-12-09T23:19:16.682Z,74.90
2022-12-09T23:21:45.020Z,83.93
2022-12-09T23:24:21.188Z,69.90
2022-12-09T23:26:53.014Z,74.70
2022-12-09T23:29:21.416Z,71.03
2022-12-09T23:31:50.018Z,79.83
2022-12-09T23:34:18.541Z,66.73
2022-12-09T23:36:47.283Z,86.53
2022-12-09T23:39:19.319Z,70.73
2022-12-09T23:41:47.798Z,66.97
2022-12-09T23:44:18.110Z,69.67
2022-12-09T23:46:46.891Z,73.50
2022-12-09T23:49:16.276Z,67.73
2022-12-09T23:51:45.195Z,72.63
2022-12-09T23:54:15.490Z,73.57
2022-12-09T23:56:49.724Z,87.37
2022-12-09T23:59:20.295Z,68.17
